sensor_id;sensor_type;location;lat;lon;timestamp;P1;durP1;ratioP1;P2;durP2;ratioP2
6173;SDS011;3120;48.796;9.796;2023-07-13T00:00:25;6.25;;;1.80;;
6173;SDS011;3120;48.796;9.796;2023-07-13T00:02:51;5.85;;;1.92;;
6173;SDS011;3120;48.796;9.796;2023-07-13T00:07:55;6.50;;;1.80;;
6173;SDS011;3120;48.796;9.796;2023-07-13T00:10:21;6.38;;;1.80;;
6173;SDS011;3120;48.796;9.796;2023-07-13T00:12:47;3.85;;;1.65;;
6173;SDS011;3120;48.796;9.796;2023-07-13T00:15:18;4.20;;;1.67;;
6173;SDS011;3120;48.796;9.796;2023-07-13T00:17:48;3.28;;;1.60;;
6173;SDS011;3120;48.796;9.796;2023-07-13T00:20:18;8.63;;;1.45;;
6173;SDS011;3120;48.796;9.796;2023-07-13T00:22:46;4.60;;;1.10;;
6173;SDS011;3120;48.796;9.796;2023-07-13T00:25:13;5.53;;;1.40;;
6173;SDS011;3120;48.796;9.796;2023-07-13T00:27:39;6.15;;;1.20;;
6173;SDS011;3120;48.796;9.796;2023-07-13T00:30:16;3.47;;;1.40;;
6173;SDS011;3120;48.796;9.796;2023-07-13T00:32:42;4.05;;;1.40;;
6173;SDS011;3120;48.796;9.796;2023-07-13T00:35:07;5.38;;;1.20;;
6173;SDS011;3120;48.796;9.796;2023-07-13T00:37:33;2.83;;;1.45;;
6173;SDS011;3120;48.796;9.796;2023-07-13T00:40:01;2.90;;;1.35;;
6173;SDS011;3120;48.796;9.796;2023-07-13T00:42:30;1.92;;;0.95;;
6173;SDS011;3120;48.796;9.796;2023-07-13T00:47:52;2.58;;;1.60;;
6173;SDS011;3120;48.796;9.796;2023-07-13T00:50:18;6.97;;;1.48;;
6173;SDS011;3120;48.796;9.796;2023-07-13T00:52:46;3.45;;;1.55;;
6173;SDS011;3120;48.796;9.796;2023-07-13T00:55:15;5.72;;;1.25;;
6173;SDS011;3120;48.796;9.796;2023-07-13T00:57:42;1.98;;;0.98;;
6173;SDS011;3120;48.796;9.796;2023-07-13T01:00:09;2.25;;;1.02;;
6173;SDS011;3120;48.796;9.796;2023-07-13T01:02:37;10.90;;;1.00;;
6173;SDS011;3120;48.796;9.796;2023-07-13T01:05:12;3.20;;;1.52;;
6173;SDS011;3120;48.796;9.796;2023-07-13T01:07:40;2.83;;;1.77;;
6173;SDS011;3120;48.796;9.796;2023-07-13T01:10:06;5.43;;;1.40;;
6173;SDS011;3120;48.796;9.796;2023-07-13T01:12:32;1.90;;;0.93;;
6173;SDS011;3120;48.796;9.796;2023-07-13T01:14:59;2.75;;;1.17;;
6173;SDS011;3120;48.796;9.796;2023-07-13T01:17:29;4.72;;;1.23;;
6173;SDS011;3120;48.796;9.796;2023-07-13T01:19:58;3.33;;;0.93;;
6173;SDS011;3120;48.796;9.796;2023-07-13T01:22:25;5.47;;;0.85;;
6173;SDS011;3120;48.796;9.796;2023-07-13T01:24:51;5.50;;;1.02;;
6173;SDS011;3120;48.796;9.796;2023-07-13T01:27:22;5.30;;;0.90;;
6173;SDS011;3120;48.796;9.796;2023-07-13T01:29:50;8.35;;;0.93;;
6173;SDS011;3120;48.796;9.796;2023-07-13T01:32:18;4.65;;;1.15;;
6173;SDS011;3120;48.796;9.796;2023-07-13T01:34:49;5.18;;;1.27;;
6173;SDS011;3120;48.796;9.796;2023-07-13T01:37:19;7.55;;;0.93;;
6173;SDS011;3120;48.796;9.796;2023-07-13T01:39:44;6.18;;;0.85;;
6173;SDS011;3120;48.796;9.796;2023-07-13T01:42:10;2.08;;;0.65;;
6173;SDS011;3120;48.796;9.796;2023-07-13T01:44:35;7.68;;;0.90;;
6173;SDS011;3120;48.796;9.796;2023-07-13T01:47:02;10.50;;;1.10;;
6173;SDS011;3120;48.796;9.796;2023-07-13T01:49:28;2.83;;;0.88;;
6173;SDS011;3120;48.796;9.796;2023-07-13T01:51:53;2.33;;;0.65;;
6173;SDS011;3120;48.796;9.796;2023-07-13T01:54:19;4.00;;;0.93;;
6173;SDS011;3120;48.796;9.796;2023-07-13T01:56:44;12.25;;;1.10;;
6173;SDS011;3120;48.796;9.796;2023-07-13T01:59:10;3.38;;;0.98;;
6173;SDS011;3120;48.796;9.796;2023-07-13T02:01:36;8.45;;;1.10;;
6173;SDS011;3120;48.796;9.796;2023-07-13T02:04:02;6.03;;;1.10;;
6173;SDS011;3120;48.796;9.796;2023-07-13T02:06:27;5.10;;;1.25;;
6173;SDS011;3120;48.796;9.796;2023-07-13T02:08:53;4.22;;;1.20;;
6173;SDS011;3120;48.796;9.796;2023-07-13T02:11:19;6.68;;;1.23;;
6173;SDS011;3120;48.796;9.796;2023-07-13T02:13:44;2.60;;;1.00;;
6173;SDS011;3120;48.796;9.796;2023-07-13T02:16:10;5.55;;;1.20;;
6173;SDS011;3120;48.796;9.796;2023-07-13T02:18:36;3.10;;;1.30;;
6173;SDS011;3120;48.796;9.796;2023-07-13T02:21:02;5.70;;;0.90;;
6173;SDS011;3120;48.796;9.796;2023-07-13T02:23:28;6.97;;;1.02;;
6173;SDS011;3120;48.796;9.796;2023-07-13T02:25:54;10.80;;;2.50;;
6173;SDS011;3120;48.796;9.796;2023-07-13T02:28:21;6.65;;;0.90;;
6173;SDS011;3120;48.796;9.796;2023-07-13T02:30:46;3.20;;;1.50;;
6173;SDS011;3120;48.796;9.796;2023-07-13T02:33:12;6.10;;;0.98;;
6173;SDS011;3120;48.796;9.796;2023-07-13T02:35:37;3.88;;;1.23;;
6173;SDS011;3120;48.796;9.796;2023-07-13T02:38:03;4.82;;;1.40;;
6173;SDS011;3120;48.796;9.796;2023-07-13T02:40:29;7.43;;;1.33;;
6173;SDS011;3120;48.796;9.796;2023-07-13T02:42:58;6.50;;;1.35;;
6173;SDS011;3120;48.796;9.796;2023-07-13T02:45:23;4.95;;;1.33;;
6173;SDS011;3120;48.796;9.796;2023-07-13T02:47:49;9.55;;;1.50;;
6173;SDS011;3120;48.796;9.796;2023-07-13T02:50:15;1.30;;;1.00;;
6173;SDS011;3120;48.796;9.796;2023-07-13T02:52:40;5.90;;;1.30;;
6173;SDS011;3120;48.796;9.796;2023-07-13T02:55:06;3.63;;;1.27;;
6173;SDS011;3120;48.796;9.796;2023-07-13T02:57:31;2.05;;;1.27;;
6173;SDS011;3120;48.796;9.796;2023-07-13T02:59:58;1.08;;;0.80;;
6173;SDS011;3120;48.796;9.796;2023-07-13T03:02:24;3.83;;;1.30;;
6173;SDS011;3120;48.796;9.796;2023-07-13T03:04:52;5.43;;;1.50;;
6173;SDS011;3120;48.796;9.796;2023-07-13T03:07:19;4.85;;;1.48;;
6173;SDS011;3120;48.796;9.796;2023-07-13T03:09:45;13.20;;;1.65;;
6173;SDS011;3120;48.796;9.796;2023-07-13T03:12:10;3.60;;;1.40;;
6173;SDS011;3120;48.796;9.796;2023-07-13T03:14:36;7.38;;;1.55;;
6173;SDS011;3120;48.796;9.796;2023-07-13T03:17:01;3.08;;;1.40;;
6173;SDS011;3120;48.796;9.796;2023-07-13T03:19:27;4.10;;;1.58;;
6173;SDS011;3120;48.796;9.796;2023-07-13T03:21:53;6.57;;;1.35;;
6173;SDS011;3120;48.796;9.796;2023-07-13T03:24:18;3.67;;;1.38;;
6173;SDS011;3120;48.796;9.796;2023-07-13T03:26:44;5.97;;;1.50;;
6173;SDS011;3120;48.796;9.796;2023-07-13T03:29:10;8.43;;;1.40;;
6173;SDS011;3120;48.796;9.796;2023-07-13T03:31:36;3.55;;;1.35;;
6173;SDS011;3120;48.796;9.796;2023-07-13T03:34:02;3.65;;;1.40;;
6173;SDS011;3120;48.796;9.796;2023-07-13T03:36:28;3.95;;;1.45;;
6173;SDS011;3120;48.796;9.796;2023-07-13T03:38:56;5.75;;;1.60;;
6173;SDS011;3120;48.796;9.796;2023-07-13T03:41:24;5.60;;;1.38;;
6173;SDS011;3120;48.796;9.796;2023-07-13T03:43:51;6.45;;;1.20;;
6173;SDS011;3120;48.796;9.796;2023-07-13T03:46:17;1.88;;;1.10;;
6173;SDS011;3120;48.796;9.796;2023-07-13T03:48:43;3.97;;;1.00;;
6173;SDS011;3120;48.796;9.796;2023-07-13T03:51:11;2.63;;;0.90;;
6173;SDS011;3120;48.796;9.796;2023-07-13T03:53:39;8.13;;;1.20;;
6173;SDS011;3120;48.796;9.796;2023-07-13T03:56:06;4.55;;;1.27;;
6173;SDS011;3120;48.796;9.796;2023-07-13T03:58:38;2.95;;;1.08;;
6173;SDS011;3120;48.796;9.796;2023-07-13T04:01:06;6.70;;;1.33;;
6173;SDS011;3120;48.796;9.796;2023-07-13T04:03:33;9.27;;;1.25;;
6173;SDS011;3120;48.796;9.796;2023-07-13T04:05:59;6.88;;;1.30;;
6173;SDS011;3120;48.796;9.796;2023-07-13T04:08:27;6.20;;;1.40;;
6173;SDS011;3120;48.796;9.796;2023-07-13T04:10:54;9.43;;;1.40;;
6173;SDS011;3120;48.796;9.796;2023-07-13T04:13:20;1.75;;;1.00;;
6173;SDS011;3120;48.796;9.796;2023-07-13T04:15:45;4.32;;;1.30;;
6173;SDS011;3120;48.796;9.796;2023-07-13T04:18:11;6.00;;;1.23;;
6173;SDS011;3120;48.796;9.796;2023-07-13T04:20:36;4.07;;;1.45;;
6173;SDS011;3120;48.796;9.796;2023-07-13T04:23:02;6.45;;;1.23;;
6173;SDS011;3120;48.796;9.796;2023-07-13T04:25:28;4.50;;;1.30;;
6173;SDS011;3120;48.796;9.796;2023-07-13T04:27:54;5.57;;;1.52;;
6173;SDS011;3120;48.796;9.796;2023-07-13T04:30:20;7.07;;;1.35;;
6173;SDS011;3120;48.796;9.796;2023-07-13T04:32:46;5.13;;;1.98;;
6173;SDS011;3120;48.796;9.796;2023-07-13T04:35:12;6.43;;;1.13;;
6173;SDS011;3120;48.796;9.796;2023-07-13T04:37:39;3.30;;;1.30;;
6173;SDS011;3120;48.796;9.796;2023-07-13T04:40:05;5.40;;;1.40;;
6173;SDS011;3120;48.796;9.796;2023-07-13T04:42:31;2.78;;;1.20;;
6173;SDS011;3120;48.796;9.796;2023-07-13T04:44:57;6.68;;;1.23;;
6173;SDS011;3120;48.796;9.796;2023-07-13T04:47:23;4.25;;;1.40;;
6173;SDS011;3120;48.796;9.796;2023-07-13T04:49:48;3.72;;;1.42;;
6173;SDS011;3120;48.796;9.796;2023-07-13T04:52:14;5.38;;;1.30;;
6173;SDS011;3120;48.796;9.796;2023-07-13T04:54:39;4.03;;;1.10;;
6173;SDS011;3120;48.796;9.796;2023-07-13T04:57:05;4.93;;;1.27;;
6173;SDS011;3120;48.796;9.796;2023-07-13T04:59:31;5.85;;;1.38;;
6173;SDS011;3120;48.796;9.796;2023-07-13T05:01:57;5.93;;;1.20;;
6173;SDS011;3120;48.796;9.796;2023-07-13T05:04:23;5.82;;;1.35;;
6173;SDS011;3120;48.796;9.796;2023-07-13T05:06:49;5.50;;;1.25;;
6173;SDS011;3120;48.796;9.796;2023-07-13T05:09:14;12.27;;;1.38;;
6173;SDS011;3120;48.796;9.796;2023-07-13T05:11:40;4.13;;;1.42;;
6173;SDS011;3120;48.796;9.796;2023-07-13T05:14:06;9.73;;;1.00;;
6173;SDS011;3120;48.796;9.796;2023-07-13T05:16:31;5.70;;;1.40;;
6173;SDS011;3120;48.796;9.796;2023-07-13T05:18:57;3.22;;;0.98;;
6173;SDS011;3120;48.796;9.796;2023-07-13T05:21:23;5.97;;;1.23;;
6173;SDS011;3120;48.796;9.796;2023-07-13T05:23:49;6.32;;;1.20;;
6173;SDS011;3120;48.796;9.796;2023-07-13T05:26:15;4.18;;;1.20;;
6173;SDS011;3120;48.796;9.796;2023-07-13T05:28:40;1.67;;;0.80;;
6173;SDS011;3120;48.796;9.796;2023-07-13T05:31:07;4.35;;;0.70;;
6173;SDS011;3120;48.796;9.796;2023-07-13T05:33:34;7.45;;;0.98;;
6173;SDS011;3120;48.796;9.796;2023-07-13T05:36:00;3.80;;;0.93;;
6173;SDS011;3120;48.796;9.796;2023-07-13T05:40:55;2.75;;;0.70;;
6173;SDS011;3120;48.796;9.796;2023-07-13T05:43:21;3.45;;;0.90;;
6173;SDS011;3120;48.796;9.796;2023-07-13T05:45:48;5.72;;;1.20;;
6173;SDS011;3120;48.796;9.796;2023-07-13T05:48:14;6.57;;;1.00;;
6173;SDS011;3120;48.796;9.796;2023-07-13T05:50:40;7.72;;;1.38;;
6173;SDS011;3120;48.796;9.796;2023-07-13T05:53:06;3.78;;;0.82;;
6173;SDS011;3120;48.796;9.796;2023-07-13T05:55:32;10.23;;;1.20;;
6173;SDS011;3120;48.796;9.796;2023-07-13T05:57:59;5.65;;;1.05;;
6173;SDS011;3120;48.796;9.796;2023-07-13T06:13:35;3.67;;;0.82;;
6173;SDS011;3120;48.796;9.796;2023-07-13T06:16:21;2.83;;;0.88;;
6173;SDS011;3120;48.796;9.796;2023-07-13T06:18:47;6.40;;;1.00;;
6173;SDS011;3120;48.796;9.796;2023-07-13T06:21:14;6.72;;;0.90;;
6173;SDS011;3120;48.796;9.796;2023-07-13T06:23:41;4.38;;;0.88;;
6173;SDS011;3120;48.796;9.796;2023-07-13T06:26:10;4.43;;;0.80;;
6173;SDS011;3120;48.796;9.796;2023-07-13T06:28:36;5.95;;;0.90;;
6173;SDS011;3120;48.796;9.796;2023-07-13T06:31:04;2.85;;;0.63;;
6173;SDS011;3120;48.796;9.796;2023-07-13T06:33:33;8.50;;;1.38;;
6173;SDS011;3120;48.796;9.796;2023-07-13T06:35:59;4.95;;;1.00;;
6173;SDS011;3120;48.796;9.796;2023-07-13T06:38:25;3.58;;;0.85;;
6173;SDS011;3120;48.796;9.796;2023-07-13T06:40:51;5.03;;;0.90;;
6173;SDS011;3120;48.796;9.796;2023-07-13T06:43:17;5.00;;;1.60;;
6173;SDS011;3120;48.796;9.796;2023-07-13T06:45:44;3.03;;;1.00;;
6173;SDS011;3120;48.796;9.796;2023-07-13T06:48:12;8.40;;;1.25;;
6173;SDS011;3120;48.796;9.796;2023-07-13T06:50:38;5.05;;;0.80;;
6173;SDS011;3120;48.796;9.796;2023-07-13T06:53:04;3.17;;;0.85;;
6173;SDS011;3120;48.796;9.796;2023-07-13T06:55:29;4.70;;;1.10;;
6173;SDS011;3120;48.796;9.796;2023-07-13T06:57:55;7.13;;;0.90;;
6173;SDS011;3120;48.796;9.796;2023-07-13T07:00:20;10.52;;;0.95;;
6173;SDS011;3120;48.796;9.796;2023-07-13T07:02:46;5.60;;;1.20;;
6173;SDS011;3120;48.796;9.796;2023-07-13T07:05:11;8.05;;;0.90;;
6173;SDS011;3120;48.796;9.796;2023-07-13T07:07:37;3.50;;;1.08;;
6173;SDS011;3120;48.796;9.796;2023-07-13T07:10:03;7.05;;;0.93;;
6173;SDS011;3120;48.796;9.796;2023-07-13T07:12:29;3.83;;;0.80;;
6173;SDS011;3120;48.796;9.796;2023-07-13T07:14:55;4.70;;;1.00;;
6173;SDS011;3120;48.796;9.796;2023-07-13T07:17:20;8.43;;;1.08;;
6173;SDS011;3120;48.796;9.796;2023-07-13T07:19:46;6.57;;;0.80;;
6173;SDS011;3120;48.796;9.796;2023-07-13T07:22:12;8.80;;;1.00;;
6173;SDS011;3120;48.796;9.796;2023-07-13T07:42:45;5.75;;;1.13;;
6173;SDS011;3120;48.796;9.796;2023-07-13T07:45:10;5.13;;;1.23;;
6173;SDS011;3120;48.796;9.796;2023-07-13T07:47:36;3.63;;;1.08;;
6173;SDS011;3120;48.796;9.796;2023-07-13T07:50:03;6.55;;;1.08;;
6173;SDS011;3120;48.796;9.796;2023-07-13T07:52:32;4.57;;;0.90;;
6173;SDS011;3120;48.796;9.796;2023-07-13T07:55:15;9.85;;;0.80;;
6173;SDS011;3120;48.796;9.796;2023-07-13T07:57:54;5.13;;;0.70;;
6173;SDS011;3120;48.796;9.796;2023-07-13T08:00:22;3.75;;;0.88;;
6173;SDS011;3120;48.796;9.796;2023-07-13T08:02:48;5.28;;;1.08;;
6173;SDS011;3120;48.796;9.796;2023-07-13T08:05:14;3.80;;;0.73;;
6173;SDS011;3120;48.796;9.796;2023-07-13T08:07:40;3.50;;;0.60;;
6173;SDS011;3120;48.796;9.796;2023-07-13T08:10:07;6.60;;;0.80;;
6173;SDS011;3120;48.796;9.796;2023-07-13T08:12:35;3.63;;;0.50;;
6173;SDS011;3120;48.796;9.796;2023-07-13T08:22:20;7.25;;;1.00;;
6173;SDS011;3120;48.796;9.796;2023-07-13T08:24:53;3.78;;;0.80;;
6173;SDS011;3120;48.796;9.796;2023-07-13T08:27:22;3.08;;;0.70;;
6173;SDS011;3120;48.796;9.796;2023-07-13T10:23:08;3.25;;;0.68;;
6173;SDS011;3120;48.796;9.796;2023-07-13T10:25:45;5.43;;;0.60;;
6173;SDS011;3120;48.796;9.796;2023-07-13T10:30:52;6.35;;;0.90;;
6173;SDS011;3120;48.796;9.796;2023-07-13T10:33:22;5.38;;;0.70;;
6173;SDS011;3120;48.796;9.796;2023-07-13T10:35:49;2.03;;;0.55;;
6173;SDS011;3120;48.796;9.796;2023-07-13T10:38:21;3.22;;;0.77;;
6173;SDS011;3120;48.796;9.796;2023-07-13T10:41:08;4.43;;;0.60;;
6173;SDS011;3120;48.796;9.796;2023-07-13T10:47:13;3.38;;;0.77;;
6173;SDS011;3120;48.796;9.796;2023-07-13T10:49:46;3.25;;;0.75;;
6173;SDS011;3120;48.796;9.796;2023-07-13T10:58:15;6.00;;;0.60;;
6173;SDS011;3120;48.796;9.796;2023-07-13T11:00:57;2.33;;;0.90;;
6173;SDS011;3120;48.796;9.796;2023-07-13T11:06:38;3.13;;;0.52;;
6173;SDS011;3120;48.796;9.796;2023-07-13T11:12:09;2.80;;;0.60;;
6173;SDS011;3120;48.796;9.796;2023-07-13T12:21:04;5.82;;;0.52;;
6173;SDS011;3120;48.796;9.796;2023-07-13T12:26:58;2.83;;;0.70;;
6173;SDS011;3120;48.796;9.796;2023-07-13T12:29:26;4.30;;;1.02;;
6173;SDS011;3120;48.796;9.796;2023-07-13T12:31:56;8.15;;;0.60;;
6173;SDS011;3120;48.796;9.796;2023-07-13T12:34:23;7.75;;;1.00;;
6173;SDS011;3120;48.796;9.796;2023-07-13T12:36:51;6.10;;;0.80;;
6173;SDS011;3120;48.796;9.796;2023-07-13T12:41:46;1.52;;;0.40;;
6173;SDS011;3120;48.796;9.796;2023-07-13T12:44:16;3.33;;;0.70;;
6173;SDS011;3120;48.796;9.796;2023-07-13T12:50:14;3.25;;;0.73;;
6173;SDS011;3120;48.796;9.796;2023-07-13T12:52:54;3.75;;;1.00;;
6173;SDS011;3120;48.796;9.796;2023-07-13T12:55:27;4.05;;;0.50;;
6173;SDS011;3120;48.796;9.796;2023-07-13T12:58:09;4.88;;;0.90;;
6173;SDS011;3120;48.796;9.796;2023-07-13T13:00:49;2.92;;;0.73;;
6173;SDS011;3120;48.796;9.796;2023-07-13T13:06:47;2.88;;;0.75;;
6173;SDS011;3120;48.796;9.796;2023-07-13T13:09:35;7.15;;;0.90;;
6173;SDS011;3120;48.796;9.796;2023-07-13T13:12:15;6.40;;;0.73;;
6173;SDS011;3120;48.796;9.796;2023-07-13T13:15:11;2.15;;;0.68;;
6173;SDS011;3120;48.796;9.796;2023-07-13T13:21:35;4.28;;;0.73;;
6173;SDS011;3120;48.796;9.796;2023-07-13T13:44:28;2.50;;;0.70;;
6173;SDS011;3120;48.796;9.796;2023-07-13T13:46:54;5.60;;;0.90;;
6173;SDS011;3120;48.796;9.796;2023-07-13T13:49:26;3.72;;;0.75;;
6173;SDS011;3120;48.796;9.796;2023-07-13T13:51:55;2.67;;;0.73;;
6173;SDS011;3120;48.796;9.796;2023-07-13T13:54:21;2.45;;;0.70;;
6173;SDS011;3120;48.796;9.796;2023-07-13T13:56:50;5.35;;;0.60;;
6173;SDS011;3120;48.796;9.796;2023-07-13T13:59:17;3.90;;;0.68;;
6173;SDS011;3120;48.796;9.796;2023-07-13T14:01:44;4.28;;;1.05;;
6173;SDS011;3120;48.796;9.796;2023-07-13T14:04:17;2.70;;;1.00;;
6173;SDS011;3120;48.796;9.796;2023-07-13T14:06:44;3.50;;;0.70;;
6173;SDS011;3120;48.796;9.796;2023-07-13T14:12:08;3.35;;;0.80;;
6173;SDS011;3120;48.796;9.796;2023-07-13T14:14:38;4.72;;;0.77;;
6173;SDS011;3120;48.796;9.796;2023-07-13T14:17:27;6.95;;;0.70;;
6173;SDS011;3120;48.796;9.796;2023-07-13T14:19:53;4.15;;;0.50;;
6173;SDS011;3120;48.796;9.796;2023-07-13T14:22:25;3.75;;;0.50;;
6173;SDS011;3120;48.796;9.796;2023-07-13T14:24:54;7.28;;;0.60;;
6173;SDS011;3120;48.796;9.796;2023-07-13T14:27:22;2.13;;;0.60;;
6173;SDS011;3120;48.796;9.796;2023-07-13T14:29:49;10.50;;;0.98;;
6173;SDS011;3120;48.796;9.796;2023-07-13T14:32:16;5.63;;;1.00;;
6173;SDS011;3120;48.796;9.796;2023-07-13T14:34:41;5.03;;;0.70;;
6173;SDS011;3120;48.796;9.796;2023-07-13T14:37:11;5.15;;;0.80;;
6173;SDS011;3120;48.796;9.796;2023-07-13T14:39:39;2.78;;;0.52;;
6173;SDS011;3120;48.796;9.796;2023-07-13T14:42:08;5.45;;;0.80;;
6173;SDS011;3120;48.796;9.796;2023-07-13T14:44:34;2.33;;;1.10;;
6173;SDS011;3120;48.796;9.796;2023-07-13T14:47:01;1.98;;;0.70;;
6173;SDS011;3120;48.796;9.796;2023-07-13T14:49:32;3.63;;;0.80;;
6173;SDS011;3120;48.796;9.796;2023-07-13T14:51:59;3.30;;;0.70;;
6173;SDS011;3120;48.796;9.796;2023-07-13T14:54:31;6.70;;;0.98;;
6173;SDS011;3120;48.796;9.796;2023-07-13T14:56:57;6.95;;;0.55;;
6173;SDS011;3120;48.796;9.796;2023-07-13T14:59:23;3.47;;;0.68;;
6173;SDS011;3120;48.796;9.796;2023-07-13T15:01:49;4.65;;;0.70;;
6173;SDS011;3120;48.796;9.796;2023-07-13T15:04:15;2.30;;;0.47;;
6173;SDS011;3120;48.796;9.796;2023-07-13T15:06:56;4.88;;;0.60;;
6173;SDS011;3120;48.796;9.796;2023-07-13T15:09:24;2.13;;;0.60;;
6173;SDS011;3120;48.796;9.796;2023-07-13T15:11:56;9.35;;;0.70;;
6173;SDS011;3120;48.796;9.796;2023-07-13T15:14:23;2.03;;;0.73;;
6173;SDS011;3120;48.796;9.796;2023-07-13T15:16:50;3.78;;;0.63;;
6173;SDS011;3120;48.796;9.796;2023-07-13T15:19:19;4.53;;;0.80;;
6173;SDS011;3120;48.796;9.796;2023-07-13T15:21:46;1.98;;;0.70;;
6173;SDS011;3120;48.796;9.796;2023-07-13T15:24:12;6.40;;;0.80;;
6173;SDS011;3120;48.796;9.796;2023-07-13T15:26:38;4.28;;;0.60;;
6173;SDS011;3120;48.796;9.796;2023-07-13T15:29:05;4.57;;;0.50;;
6173;SDS011;3120;48.796;9.796;2023-07-13T15:31:31;2.50;;;0.52;;
6173;SDS011;3120;48.796;9.796;2023-07-13T15:34:03;6.57;;;1.45;;
6173;SDS011;3120;48.796;9.796;2023-07-13T15:36:35;3.35;;;0.80;;
6173;SDS011;3120;48.796;9.796;2023-07-13T15:39:01;3.08;;;0.70;;
6173;SDS011;3120;48.796;9.796;2023-07-13T15:41:27;4.47;;;0.80;;
6173;SDS011;3120;48.796;9.796;2023-07-13T15:43:54;4.78;;;0.77;;
6173;SDS011;3120;48.796;9.796;2023-07-13T15:46:23;4.18;;;0.60;;
6173;SDS011;3120;48.796;9.796;2023-07-13T15:48:52;6.60;;;0.60;;
6173;SDS011;3120;48.796;9.796;2023-07-13T15:53:56;2.72;;;0.60;;
6173;SDS011;3120;48.796;9.796;2023-07-13T15:56:25;7.13;;;0.77;;
6173;SDS011;3120;48.796;9.796;2023-07-13T15:58:52;3.35;;;0.60;;
6173;SDS011;3120;48.796;9.796;2023-07-13T16:01:18;2.90;;;0.98;;
6173;SDS011;3120;48.796;9.796;2023-07-13T16:03:46;7.20;;;0.80;;
6173;SDS011;3120;48.796;9.796;2023-07-13T16:06:12;4.25;;;0.80;;
6173;SDS011;3120;48.796;9.796;2023-07-13T16:08:41;10.80;;;0.82;;
6173;SDS011;3120;48.796;9.796;2023-07-13T16:11:41;6.88;;;0.65;;
6173;SDS011;3120;48.796;9.796;2023-07-13T16:14:01;5.95;;;0.80;;
6173;SDS011;3120;48.796;9.796;2023-07-13T16:16:32;4.47;;;0.80;;
6173;SDS011;3120;48.796;9.796;2023-07-13T16:19:00;2.53;;;0.70;;
6173;SDS011;3120;48.796;9.796;2023-07-13T16:21:31;3.20;;;0.52;;
6173;SDS011;3120;48.796;9.796;2023-07-13T16:24:00;6.25;;;0.68;;
6173;SDS011;3120;48.796;9.796;2023-07-13T16:26:35;1.98;;;0.63;;
6173;SDS011;3120;48.796;9.796;2023-07-13T16:34:27;6.57;;;0.65;;
6173;SDS011;3120;48.796;9.796;2023-07-13T16:36:57;1.50;;;0.60;;
6173;SDS011;3120;48.796;9.796;2023-07-13T16:39:24;7.03;;;1.00;;
6173;SDS011;3120;48.796;9.796;2023-07-13T16:41:52;3.05;;;0.80;;
6173;SDS011;3120;48.796;9.796;2023-07-13T16:44:19;10.45;;;0.80;;
6173;SDS011;3120;48.796;9.796;2023-07-13T16:46:48;3.45;;;0.80;;
6173;SDS011;3120;48.796;9.796;2023-07-13T16:49:26;7.05;;;0.70;;
6173;SDS011;3120;48.796;9.796;2023-07-13T16:51:53;2.95;;;0.70;;
6173;SDS011;3120;48.796;9.796;2023-07-13T16:54:20;5.07;;;1.00;;
6173;SDS011;3120;48.796;9.796;2023-07-13T16:56:47;2.95;;;0.70;;
6173;SDS011;3120;48.796;9.796;2023-07-13T16:59:16;4.07;;;0.90;;
6173;SDS011;3120;48.796;9.796;2023-07-13T17:01:47;6.90;;;0.82;;
6173;SDS011;3120;48.796;9.796;2023-07-13T17:04:14;2.10;;;0.70;;
6173;SDS011;3120;48.796;9.796;2023-07-13T17:06:45;2.65;;;1.08;;
6173;SDS011;3120;48.796;9.796;2023-07-13T17:09:11;5.50;;;1.02;;
6173;SDS011;3120;48.796;9.796;2023-07-13T17:11:41;2.67;;;0.70;;
6173;SDS011;3120;48.796;9.796;2023-07-13T17:14:22;10.35;;;1.30;;
6173;SDS011;3120;48.796;9.796;2023-07-13T17:16:50;3.70;;;0.77;;
6173;SDS011;3120;48.796;9.796;2023-07-13T17:19:28;4.10;;;0.65;;
6173;SDS011;3120;48.796;9.796;2023-07-13T17:21:55;5.43;;;0.85;;
6173;SDS011;3120;48.796;9.796;2023-07-13T17:24:21;5.05;;;0.90;;
6173;SDS011;3120;48.796;9.796;2023-07-13T17:26:51;6.35;;;0.80;;
6173;SDS011;3120;48.796;9.796;2023-07-13T17:29:21;6.80;;;0.80;;
6173;SDS011;3120;48.796;9.796;2023-07-13T17:31:46;1.88;;;0.70;;
6173;SDS011;3120;48.796;9.796;2023-07-13T17:34:13;2.92;;;0.63;;
6173;SDS011;3120;48.796;9.796;2023-07-13T17:36:42;6.15;;;0.70;;
6173;SDS011;3120;48.796;9.796;2023-07-13T17:39:12;4.80;;;0.60;;
6173;SDS011;3120;48.796;9.796;2023-07-13T17:41:39;5.30;;;0.57;;
6173;SDS011;3120;48.796;9.796;2023-07-13T17:44:08;3.17;;;0.60;;
6173;SDS011;3120;48.796;9.796;2023-07-13T17:46:35;6.90;;;1.08;;
6173;SDS011;3120;48.796;9.796;2023-07-13T17:49:01;1.40;;;0.70;;
6173;SDS011;3120;48.796;9.796;2023-07-13T17:51:28;3.47;;;0.70;;
6173;SDS011;3120;48.796;9.796;2023-07-13T17:53:54;2.92;;;0.77;;
6173;SDS011;3120;48.796;9.796;2023-07-13T17:56:21;5.38;;;1.00;;
6173;SDS011;3120;48.796;9.796;2023-07-13T17:58:50;2.42;;;0.90;;
6173;SDS011;3120;48.796;9.796;2023-07-13T18:01:20;3.35;;;0.75;;
6173;SDS011;3120;48.796;9.796;2023-07-13T18:03:48;2.13;;;0.68;;
6173;SDS011;3120;48.796;9.796;2023-07-13T18:06:22;3.00;;;0.70;;
6173;SDS011;3120;48.796;9.796;2023-07-13T18:08:52;2.78;;;0.60;;
6173;SDS011;3120;48.796;9.796;2023-07-13T18:11:19;3.85;;;0.73;;
6173;SDS011;3120;48.796;9.796;2023-07-13T18:37:09;4.18;;;0.60;;
6173;SDS011;3120;48.796;9.796;2023-07-13T18:39:43;3.08;;;0.82;;
6173;SDS011;3120;48.796;9.796;2023-07-13T18:42:09;4.40;;;0.85;;
6173;SDS011;3120;48.796;9.796;2023-07-13T18:44:35;4.28;;;0.75;;
6173;SDS011;3120;48.796;9.796;2023-07-13T18:47:01;6.47;;;0.82;;
6173;SDS011;3120;48.796;9.796;2023-07-13T18:49:27;5.05;;;0.88;;
6173;SDS011;3120;48.796;9.796;2023-07-13T18:51:53;8.13;;;0.85;;
6173;SDS011;3120;48.796;9.796;2023-07-13T18:54:18;5.97;;;0.65;;
6173;SDS011;3120;48.796;9.796;2023-07-13T18:56:46;8.77;;;0.90;;
6173;SDS011;3120;48.796;9.796;2023-07-13T18:59:11;5.03;;;0.80;;
6173;SDS011;3120;48.796;9.796;2023-07-13T19:01:37;3.90;;;0.98;;
6173;SDS011;3120;48.796;9.796;2023-07-13T19:06:58;2.30;;;0.80;;
6173;SDS011;3120;48.796;9.796;2023-07-13T19:09:24;2.60;;;1.40;;
6173;SDS011;3120;48.796;9.796;2023-07-13T19:11:52;1.70;;;0.57;;
6173;SDS011;3120;48.796;9.796;2023-07-13T19:14:20;6.68;;;1.45;;
6173;SDS011;3120;48.796;9.796;2023-07-13T19:16:49;2.10;;;0.80;;
6173;SDS011;3120;48.796;9.796;2023-07-13T19:19:17;1.27;;;0.55;;
6173;SDS011;3120;48.796;9.796;2023-07-13T19:21:44;2.78;;;0.50;;
6173;SDS011;3120;48.796;9.796;2023-07-13T19:24:18;4.43;;;0.93;;
6173;SDS011;3120;48.796;9.796;2023-07-13T19:26:46;6.85;;;0.70;;
6173;SDS011;3120;48.796;9.796;2023-07-13T19:29:23;3.10;;;0.80;;
6173;SDS011;3120;48.796;9.796;2023-07-13T19:31:54;2.53;;;0.50;;
6173;SDS011;3120;48.796;9.796;2023-07-13T19:34:22;4.00;;;0.70;;
6173;SDS011;3120;48.796;9.796;2023-07-13T19:37:32;3.25;;;1.00;;
6173;SDS011;3120;48.796;9.796;2023-07-13T19:39:48;3.38;;;0.73;;
6173;SDS011;3120;48.796;9.796;2023-07-13T19:42:25;3.38;;;0.80;;
6173;SDS011;3120;48.796;9.796;2023-07-13T19:44:54;5.65;;;0.93;;
6173;SDS011;3120;48.796;9.796;2023-07-13T19:47:21;6.68;;;0.82;;
6173;SDS011;3120;48.796;9.796;2023-07-13T19:49:47;3.13;;;1.05;;
6173;SDS011;3120;48.796;9.796;2023-07-13T19:52:18;5.40;;;1.27;;
6173;SDS011;3120;48.796;9.796;2023-07-13T19:54:50;3.88;;;0.90;;
6173;SDS011;3120;48.796;9.796;2023-07-13T19:57:19;4.93;;;1.00;;
6173;SDS011;3120;48.796;9.796;2023-07-13T19:59:47;6.50;;;1.25;;
6173;SDS011;3120;48.796;9.796;2023-07-13T20:02:19;2.63;;;1.00;;
6173;SDS011;3120;48.796;9.796;2023-07-13T20:04:46;8.23;;;1.10;;
6173;SDS011;3120;48.796;9.796;2023-07-13T20:07:16;7.45;;;0.80;;
6173;SDS011;3120;48.796;9.796;2023-07-13T20:09:43;4.87;;;0.57;;
6173;SDS011;3120;48.796;9.796;2023-07-13T20:14:44;5.25;;;0.90;;
6173;SDS011;3120;48.796;9.796;2023-07-13T20:20:15;2.65;;;0.98;;
6173;SDS011;3120;48.796;9.796;2023-07-13T20:22:44;6.78;;;1.20;;
6173;SDS011;3120;48.796;9.796;2023-07-13T20:25:16;5.47;;;1.00;;
6173;SDS011;3120;48.796;9.796;2023-07-13T20:27:49;6.90;;;0.98;;
6173;SDS011;3120;48.796;9.796;2023-07-13T20:30:22;8.45;;;1.27;;
6173;SDS011;3120;48.796;9.796;2023-07-13T20:32:49;3.72;;;1.25;;
6173;SDS011;3120;48.796;9.796;2023-07-13T20:37:49;6.03;;;1.20;;
6173;SDS011;3120;48.796;9.796;2023-07-13T20:40:17;4.82;;;1.25;;
6173;SDS011;3120;48.796;9.796;2023-07-13T20:42:46;3.30;;;1.02;;
6173;SDS011;3120;48.796;9.796;2023-07-13T20:47:46;8.97;;;0.87;;
6173;SDS011;3120;48.796;9.796;2023-07-13T20:52:44;4.03;;;1.35;;